Aérodrome :
LOGIN :

S'inscrire | Disclaimer

   EN    FR    IT 

 










Légende :    VFR   VFR Marginal   IFR   IFR Intensif   IFR Très Intensif
Visi : 
Plafond : 
>= 8 km
>= 3000ft
5 à 8 km
1000 à 3000 ft
1500m à 5 km
500 à 1000 ft
800 à 1500m
200 à 500 ft
< 800m
< 200 ft
Symboles :   Orages  Brouillard  Fortes neiges  Fortes précipitations  Vent > 20 kt
SIGMETs :   Divers  Orages  Givrage  Turbulence  Onde Orograph.  Cendres Volcan.







- Altitude de l'aérodrome : 1234 ft
- Code IATA : LUX


ELLX - Luxembourg Findel

DERNIER METAR :
  • 180620Z 21009KT 180V250 9999 FEW008 SCT012 BKN022 18/17 Q1015 NOSIG

METARs EXPIRÉS :
  • 180550Z 20008KT 9999 -SHRA FEW007 SCT013 BKN018 18/17 Q1016 NOSIG
  • 180520Z 20007KT 9999 -RA FEW007 SCT010 BKN013 17/17 Q1016 NOSIG
  • 180450Z 20006KT 9999 FEW007 BKN018 17/17 Q1015 NOSIG
  • 180420Z 19007KT 150V210 9999 FEW007 BKN018 17/17 Q1015 NOSIG
  • 180350Z 18005KT 9999 FEW012 SCT040 18/17 Q1016 NOSIG

TAF TAF ELLX
Valide du 18 à 06h jusqu'au 19 à 12h UTC


180500Z 1806/1912 20006KT 9999 BKN020
TEMPO 1808/1814 23010G20KT 3000 RA SHRA BKN012 SCT012TCU
TEMPO 1817/1822 5000 SHRA SCT012TCU
BECMG 1822/1824 FEW015
TEMPO 1902/1907 5000 BR
ATIS : +352 4798 27300
Météo : +352 4798 27010 / 27050
Pas de NOTAMs connus pour ce terrain.



MET'MAP, la Météo Aéronautique d'un coup d'oeil ! - Copyright ORBIFLY Décembre 2007 - Disclaimer

ORBIFLY MET'MAP TEAM :

Programmation & Développement : Alexandra Zaïnal
Conception & Développement : Baudouin d'Aumeries
Co-Programmation & Développement : Marc-Olivier Méhu
Soutien technique & logistique : Manuel Goepfert

Contact : metmap@orbifly.com




SOURCES & CREDITS :

   NOAA